Dragocidental — CSYN4 — position and weather

sailwx.info

Track history (hours):
 
Tides and Currents Weather Stations Pressure Air Temp Water Temp Dewpoint Dewpoint Depression Visibility Wind Speed Wind Dir Waves Ship Positions

Dragocidental

Last reported at 2017-Sep-26 02:00 UTC. Time now 2017-Sep-26 02:23 UTC.
Position N 37°44' W 025°40'.

Length 30 m.

Type: Dredging. MMSI: 204671360.

Date/timePositionNaut miles runAvg speedWind from/ knotsBaromVisibWave heightAir tempDewpointWater temp
2017-Sep-26 02:00N 37°44' W 025°40'0 0.0
2017-Sep-26 01:27N 37°44' W 025°40'0 0.0
2017-Sep-26 00:57N 37°44' W 025°40'0 0.0
2017-Sep-26 00:30N 37°44' W 025°40'0 0.0
2017-Sep-26 00:00N 37°44' W 025°40'0 0.0
2017-Sep-25 23:30N 37°44' W 025°40'0 0.0
2017-Sep-25 23:00N 37°44' W 025°40'0 0.0
2017-Sep-25 22:30N 37°44' W 025°40'0 0.0
2017-Sep-25 22:00N 37°44' W 025°40'0 0.0
2017-Sep-25 21:30N 37°44' W 025°40'0 0.0
2017-Sep-25 21:00N 37°44' W 025°40'0 0.0
2017-Sep-25 20:30N 37°44' W 025°40'0 0.0
2017-Sep-25 19:57N 37°44' W 025°40'0 0.0
2017-Sep-25 19:30N 37°44' W 025°40'0 0.0
2017-Sep-25 19:00N 37°44' W 025°40'0 0.0
2017-Sep-25 18:27N 37°44' W 025°40'0 0.0
2017-Sep-25 18:00N 37°44' W 025°40'0 0.0
2017-Sep-25 17:27N 37°44' W 025°40'0 0.0
2017-Sep-25 17:00N 37°44' W 025°40'0 0.0
2017-Sep-25 16:30N 37°44' W 025°40'0 0.0
2017-Sep-25 16:00N 37°44' W 025°40'0 0.0
2017-Sep-25 15:27N 37°44' W 025°40'0 0.0
2017-Sep-25 15:00N 37°44' W 025°40'0 0.0
2017-Sep-25 14:30N 37°44' W 025°40'0 0.0
2017-Sep-25 14:00N 37°44' W 025°40'0 0.0
2017-Sep-25 13:30N 37°44' W 025°40'0 0.0
2017-Sep-25 13:00N 37°44' W 025°40'0 0.0
2017-Sep-25 12:30N 37°44' W 025°40'1 1.9
2017-Sep-25 12:00N 37°44' W 025°41'3 5.2
2017-Sep-25 11:30N 37°45' W 025°44'3 5.3
2017-Sep-25 11:00N 37°47' W 025°47'1 2.6
2017-Sep-25 10:29N 37°48' W 025°48'0 0.0
2017-Sep-25 09:58N 37°48' W 025°48'0 0.0
2017-Sep-25 09:30N 37°48' W 025°48'3 6.1
2017-Sep-25 09:00N 37°46' W 025°45'3 6.1
2017-Sep-25 08:30N 37°44' W 025°42'1 2.6
2017-Sep-25 07:59N 37°44' W 025°40'0 0.0
2017-Sep-25 07:29N 37°44' W 025°40'0 0.0
2017-Sep-25 06:58N 37°44' W 025°40'0 0.0
2017-Sep-25 06:28N 37°44' W 025°40'0 0.0
2017-Sep-25 05:59N 37°44' W 025°40'0 0.0
2017-Sep-25 05:29N 37°44' W 025°40'0 0.0
2017-Sep-25 04:59N 37°44' W 025°40'0 0.0
2017-Sep-25 04:29N 37°44' W 025°40'0 0.0
2017-Sep-25 03:59N 37°44' W 025°40'0 0.0
2017-Sep-25 03:29N 37°44' W 025°40'0 0.0
2017-Sep-25 02:59N 37°44' W 025°40'0 0.0
2017-Sep-25 02:20N 37°44' W 025°40'0 0.0
2017-Sep-25 01:59N 37°44' W 025°40'0 0.0
2017-Sep-25 01:29N 37°44' W 025°40'0 0.0
2017-Sep-25 00:59N 37°44' W 025°40'0 0.0
2017-Sep-25 00:29N 37°44' W 025°40'0 0.0
2017-Sep-24 23:59N 37°44' W 025°40'0 0.0
2017-Sep-24 23:29N 37°44' W 025°40'0 0.0
2017-Sep-24 22:59N 37°44' W 025°40'0 0.0
2017-Sep-24 22:29N 37°44' W 025°40'0 0.0
2017-Sep-24 21:59N 37°44' W 025°40'0 0.0
2017-Sep-24 21:29N 37°44' W 025°40'0 0.0
2017-Sep-24 20:59N 37°44' W 025°40'0 0.0
2017-Sep-24 20:29N 37°44' W 025°40'0 0.0
2017-Sep-24 19:56N 37°44' W 025°40'0 0.0
2017-Sep-24 19:29N 37°44' W 025°40'0 0.0
2017-Sep-24 18:59N 37°44' W 025°40'0 0.0
2017-Sep-24 18:29N 37°44' W 025°40'0 0.0
2017-Sep-24 17:59N 37°44' W 025°40'0 0.0
2017-Sep-24 17:29N 37°44' W 025°40'0 0.0
2017-Sep-24 16:59N 37°44' W 025°40'0 0.0
2017-Sep-24 16:29N 37°44' W 025°40'0 0.0
2017-Sep-24 15:59N 37°44' W 025°40'0 0.0
2017-Sep-24 15:29N 37°44' W 025°40'0 0.0
2017-Sep-24 14:59N 37°44' W 025°40'0 0.0
2017-Sep-24 14:29N 37°44' W 025°40'0 0.0
2017-Sep-24 13:59N 37°44' W 025°40'0 0.0
2017-Sep-24 13:29N 37°44' W 025°40'0 0.0
2017-Sep-24 12:59N 37°44' W 025°40'0 0.0
2017-Sep-24 12:29N 37°44' W 025°40'0 0.0
2017-Sep-24 11:59N 37°44' W 025°40'0 0.0
2017-Sep-24 11:29N 37°44' W 025°40'0 0.0
2017-Sep-24 10:59N 37°44' W 025°40'0 0.0
2017-Sep-24 10:29N 37°44' W 025°40'0 0.0
2017-Sep-24 09:59N 37°44' W 025°40'0 0.0
2017-Sep-24 09:26N 37°44' W 025°40'0 0.0
2017-Sep-24 08:59N 37°44' W 025°40'0 0.0
2017-Sep-24 08:26N 37°44' W 025°40'0 0.0
2017-Sep-24 07:59N 37°44' W 025°40'0 0.0
2017-Sep-24 07:29N 37°44' W 025°40'0 0.0
2017-Sep-24 06:59N 37°44' W 025°40'0 0.0
2017-Sep-24 06:29N 37°44' W 025°40'0 0.0
2017-Sep-24 05:59N 37°44' W 025°40'0 0.0
2017-Sep-24 05:29N 37°44' W 025°40'0 0.0
2017-Sep-24 04:59N 37°44' W 025°40'0 0.0
2017-Sep-24 04:29N 37°44' W 025°40'0 0.0
2017-Sep-24 03:59N 37°44' W 025°40'0 0.0
2017-Sep-24 03:29N 37°44' W 025°40'0 0.0
2017-Sep-24 02:59N 37°44' W 025°40'0 0.0
2017-Sep-24 02:26N 37°44' W 025°40'0 0.0
2017-Sep-24 01:59N 37°44' W 025°40'0 0.0
2017-Sep-24 01:29N 37°44' W 025°40'0 0.0
2017-Sep-24 00:59N 37°44' W 025°40'0 0.0
2017-Sep-24 00:29N 37°44' W 025°40'0 0.0
2017-Sep-23 23:56N 37°44' W 025°40'0 0.0
2017-Sep-23 23:29N 37°44' W 025°40'0 0.0
2017-Sep-23 22:59N 37°44' W 025°40'0 0.0
2017-Sep-23 22:29N 37°44' W 025°40'0 0.0
2017-Sep-23 21:56N 37°44' W 025°40'0 0.0
2017-Sep-23 21:29N 37°44' W 025°40'0 0.0
2017-Sep-23 20:59N 37°44' W 025°40'0 0.0
2017-Sep-23 20:29N 37°44' W 025°40'0 0.0
2017-Sep-23 19:59N 37°44' W 025°40'0 0.0
2017-Sep-22 01:58N 37°44' W 025°40'0 0.0
2017-Sep-22 01:28N 37°44' W 025°40'0 0.0
2017-Sep-22 00:58N 37°44' W 025°40'0 0.0
2017-Sep-22 00:28N 37°44' W 025°40'0 0.0
2017-Sep-21 23:55N 37°44' W 025°40'0 0.0
2017-Sep-21 23:28N 37°44' W 025°40'0 0.0
2017-Sep-21 22:58N 37°44' W 025°40'0 0.0
2017-Sep-21 22:28N 37°44' W 025°40'0 0.0
2017-Sep-21 21:58N 37°44' W 025°40'0 0.0
2017-Sep-21 21:28N 37°44' W 025°40'0 0.0
2017-Sep-21 20:58N 37°44' W 025°40'0 0.0
2017-Sep-21 20:28N 37°44' W 025°40'0 0.0
2017-Sep-21 19:52N 37°44' W 025°40'0 0.0
2017-Sep-21 19:28N 37°44' W 025°40'0 0.0
2017-Sep-21 18:58N 37°44' W 025°40'0 0.0
2017-Sep-21 18:28N 37°44' W 025°40'0 0.0
2017-Sep-21 17:58N 37°44' W 025°40'0 0.0
2017-Sep-21 17:28N 37°44' W 025°40'0 0.0
2017-Sep-21 16:58N 37°44' W 025°40'0 0.0
2017-Sep-21 16:28N 37°44' W 025°40'0 0.0
2017-Sep-21 15:58N 37°44' W 025°40'0 0.0
2017-Sep-21 15:28N 37°44' W 025°40'0 0.0
2017-Sep-21 14:58N 37°44' W 025°40'0 0.0
2017-Sep-21 14:28N 37°44' W 025°40'0 0.0
2017-Sep-21 13:58N 37°44' W 025°40'0 0.0
2017-Sep-21 13:28N 37°44' W 025°40'0 0.0
2017-Sep-21 12:58N 37°44' W 025°40'0 0.2
2017-Sep-21 12:30N 37°44' W 025°40'2 3.1
2017-Sep-21 12:00N 37°44' W 025°42'3 5.8
2017-Sep-21 11:30N 37°45' W 025°45'3 5.5
2017-Sep-21 11:00N 37°47' W 025°47'1 1.1
2017-Sep-21 10:29N 37°48' W 025°48'0 0.0
2017-Sep-21 09:59N 37°48' W 025°48'0 0.0
2017-Sep-21 09:29N 37°48' W 025°48'2 3.9
2017-Sep-21 09:00N 37°46' W 025°46'3 6.9
2017-Sep-21 08:30N 37°44' W 025°43'2 4.3
2017-Sep-21 08:00N 37°44' W 025°40'0 0.1
2017-Sep-21 07:29N 37°44' W 025°40'0 0.0
2017-Sep-21 06:59N 37°44' W 025°40'0 0.0
2017-Sep-21 06:26N 37°44' W 025°40'0 0.0
2017-Sep-21 05:59N 37°44' W 025°40'0 0.0
2017-Sep-21 05:29N 37°44' W 025°40'0 0.0
2017-Sep-21 04:59N 37°44' W 025°40'0 0.0
2017-Sep-21 04:29N 37°44' W 025°40'0 0.0
2017-Sep-21 03:56N 37°44' W 025°40'0 0.0
2017-Sep-21 03:29N 37°44' W 025°40'0 0.0
2017-Sep-21 02:59N 37°44' W 025°40'0 0.0
2017-Sep-21 02:29N 37°44' W 025°40'0 0.0
2017-Sep-21 01:59N 37°44' W 025°40'0 0.0
2017-Sep-21 01:29N 37°44' W 025°40'0 0.0
2017-Sep-21 00:59N 37°44' W 025°40'0 0.0
2017-Sep-21 00:29N 37°44' W 025°40'0 0.0
2017-Sep-20 23:59N 37°44' W 025°40'0 0.0
2017-Sep-20 23:29N 37°44' W 025°40'0 0.0
2017-Sep-20 22:59N 37°44' W 025°40'0 0.0
2017-Sep-20 22:26N 37°44' W 025°40'0 0.0
2017-Sep-20 21:59N 37°44' W 025°40'0 0.0
2017-Sep-20 21:29N 37°44' W 025°40'0 0.0
2017-Sep-20 20:59N 37°44' W 025°40'0 0.0
2017-Sep-20 20:29N 37°44' W 025°40'0 0.0
2017-Sep-20 19:59N 37°44' W 025°40'0 0.0
2017-Sep-20 19:29N 37°44' W 025°40'0 0.0
2017-Sep-20 18:59N 37°44' W 025°40'0 0.0
2017-Sep-20 18:29N 37°44' W 025°40'0 0.0
2017-Sep-20 17:56N 37°44' W 025°40'0 0.0
2017-Sep-20 17:29N 37°44' W 025°40'0 0.0
2017-Sep-20 16:59N 37°44' W 025°40'0 0.0
2017-Sep-20 16:29N 37°44' W 025°40'0 0.0
2017-Sep-20 15:59N 37°44' W 025°40'0 0.0
2017-Sep-20 15:29N 37°44' W 025°40'0 0.0
2017-Sep-20 14:59N 37°44' W 025°40'0 0.0
2017-Sep-20 13:59N 37°44' W 025°40'0 0.0
2017-Sep-20 13:29N 37°44' W 025°40'0 0.0
2017-Sep-20 12:59N 37°44' W 025°40'1 1.2
2017-Sep-20 12:30N 37°44' W 025°39'3 5.7
2017-Sep-20 12:00N 37°44' W 025°43'3 5.7
2017-Sep-20 11:30N 37°46' W 025°46'2 4.4
2017-Sep-20 10:58N 37°48' W 025°48'0 0.0
2017-Sep-20 10:30N 37°48' W 025°48'0 0.0
2017-Sep-20 10:00N 37°48' W 025°48'0 0.5
2017-Sep-20 09:30N 37°48' W 025°47'3 5.7
2017-Sep-20 09:00N 37°45' W 025°45'3 6.0
2017-Sep-20 08:30N 37°44' W 025°42'1 2.5
2017-Sep-20 07:58N 37°44' W 025°40'0 0.0
2017-Sep-20 07:28N 37°44' W 025°40'0 0.0
2017-Sep-20 06:58N 37°44' W 025°40'0 0.0
2017-Sep-20 06:28N 37°44' W 025°40'0 0.0
2017-Sep-20 05:55N 37°44' W 025°40'0 0.0
2017-Sep-20 05:28N 37°44' W 025°40'0 0.0
2017-Sep-20 04:58N 37°44' W 025°40'0 0.0
2017-Sep-20 04:28N 37°44' W 025°40'0 0.0
2017-Sep-20 03:58N 37°44' W 025°40'0 0.0
2017-Sep-20 03:28N 37°44' W 025°40'0 0.0
2017-Sep-20 02:58N 37°44' W 025°40'0 0.0
2017-Sep-20 02:28N 37°44' W 025°40'0 0.0
2017-Sep-20 01:58N 37°44' W 025°40'0 0.0
2017-Sep-20 01:28N 37°44' W 025°40'0 0.0
2017-Sep-20 00:58N 37°44' W 025°40'0 0.0
2017-Sep-20 00:25N 37°44' W 025°40'0 0.0
2017-Sep-19 23:58N 37°44' W 025°40'0 0.0
2017-Sep-19 23:28N 37°44' W 025°40'0 0.0
2017-Sep-19 22:58N 37°44' W 025°40'0 0.0
2017-Sep-19 22:28N 37°44' W 025°40'0 0.0
2017-Sep-19 21:58N 37°44' W 025°40'0 0.0
2017-Sep-19 21:28N 37°44' W 025°40'0 0.0
2017-Sep-19 20:58N 37°44' W 025°40'0 0.0
2017-Sep-19 20:28N 37°44' W 025°40'0 0.0
2017-Sep-19 19:58N 37°44' W 025°40'0 0.0
2017-Sep-19 19:25N 37°44' W 025°40'0 0.0
2017-Sep-19 18:58N 37°44' W 025°40'0 0.0
2017-Sep-19 18:28N 37°44' W 025°40'0 0.0
2017-Sep-19 17:58N 37°44' W 025°40'0 0.0
2017-Sep-19 17:28N 37°44' W 025°40'0 0.0
2017-Sep-19 16:58N 37°44' W 025°40'0 0.0
2017-Sep-19 16:28N 37°44' W 025°40'0 0.0
2017-Sep-19 15:55N 37°44' W 025°40'0 0.0
2017-Sep-19 15:28N 37°44' W 025°40'0 0.0
2017-Sep-19 14:58N 37°44' W 025°40'0 0.0
2017-Sep-19 14:28N 37°44' W 025°40'0 0.0
2017-Sep-19 13:55N 37°44' W 025°40'0 0.0
2017-Sep-19 13:28N 37°44' W 025°40'0 0.0
2017-Sep-19 12:58N 37°44' W 025°40'0 0.0
2017-Sep-19 12:25N 37°44' W 025°40'0 0.7
2017-Sep-19 12:00N 37°44' W 025°40'3 5.5
2017-Sep-19 11:30N 37°44' W 025°43'3 5.4
2017-Sep-19 11:00N 37°46' W 025°46'2 3.9
2017-Sep-19 10:30N 37°48' W 025°48'0 0.0
2017-Sep-19 10:00N 37°48' W 025°48'0 0.0
2017-Sep-19 09:30N 37°48' W 025°48'3 6.1
2017-Sep-19 09:00N 37°46' W 025°45'3 6.2
2017-Sep-19 08:30N 37°44' W 025°42'1 2.6
2017-Sep-19 08:00N 37°44' W 025°40'0 0.0
2017-Sep-19 07:30N 37°44' W 025°40'0 0.0
2017-Sep-19 07:00N 37°44' W 025°40'0 0.0
2017-Sep-19 06:30N 37°44' W 025°40'0 0.0
2017-Sep-19 06:00N 37°44' W 025°40'0 0.0
2017-Sep-19 05:30N 37°44' W 025°40'0 0.0
2017-Sep-19 05:00N 37°44' W 025°40'0 0.0
2017-Sep-19 04:30N 37°44' W 025°40'0 0.0
2017-Sep-19 04:00N 37°44' W 025°40'0 0.0
2017-Sep-19 03:30N 37°44' W 025°40'0 0.0
2017-Sep-19 03:00N 37°44' W 025°40'0 0.0
2017-Sep-19 02:30N 37°44' W 025°40'0 0.0
2017-Sep-19 02:00N 37°44' W 025°40'0 0.0
2017-Sep-19 01:30N 37°44' W 025°40'0 0.0
2017-Sep-19 01:00N 37°44' W 025°40'0 0.0
2017-Sep-19 00:30N 37°44' W 025°40'0 0.0
2017-Sep-19 00:00N 37°44' W 025°40'0 0.0
2017-Sep-18 23:30N 37°44' W 025°40'0 0.0
2017-Sep-18 23:00N 37°44' W 025°40'0 0.0
2017-Sep-18 22:30N 37°44' W 025°40'0 0.0
2017-Sep-18 22:00N 37°44' W 025°40'0 0.0
2017-Sep-18 21:30N 37°44' W 025°40'0 0.0
2017-Sep-18 21:00N 37°44' W 025°40'0 0.0
2017-Sep-18 20:27N 37°44' W 025°40'0 0.0
2017-Sep-18 20:00N 37°44' W 025°40'0 0.0
2017-Sep-18 19:30N 37°44' W 025°40'0 0.0
2017-Sep-18 19:00N 37°44' W 025°40'0 0.0
2017-Sep-18 18:30N 37°44' W 025°40'0 0.0
2017-Sep-18 18:00N 37°44' W 025°40'0 0.0
2017-Sep-18 17:30N 37°44' W 025°40'0 0.0
2017-Sep-18 17:00N 37°44' W 025°40'0 0.0
2017-Sep-18 16:30N 37°44' W 025°40'0 0.0
2017-Sep-18 16:00N 37°44' W 025°40'0 0.0
2017-Sep-18 15:30N 37°44' W 025°40'0 0.0
2017-Sep-18 15:00N 37°44' W 025°40'0 0.0
2017-Sep-18 14:30N 37°44' W 025°40'0 0.0
2017-Sep-18 14:00N 37°44' W 025°40'0 0.0
2017-Sep-18 13:30N 37°44' W 025°40'0 0.0
2017-Sep-18 13:00N 37°44' W 025°40'0 0.0
2017-Sep-18 12:30N 37°44' W 025°40'0 0.0
2017-Sep-18 12:00N 37°44' W 025°40'0 0.0
2017-Sep-18 11:27N 37°44' W 025°40'0 0.0
2017-Sep-18 11:00N 37°44' W 025°40'0 0.0
2017-Sep-18 10:30N 37°44' W 025°40'0 0.0
2017-Sep-18 10:00N 37°44' W 025°40'0 0.0
2017-Sep-18 09:30N 37°44' W 025°40'0 0.0
2017-Sep-18 09:00N 37°44' W 025°40'0 0.0
2017-Sep-18 08:30N 37°44' W 025°40'0 0.0
2017-Sep-18 08:00N 37°44' W 025°40'0 0.0
2017-Sep-18 07:30N 37°44' W 025°40'0 0.0
2017-Sep-18 07:00N 37°44' W 025°40'0 0.0
2017-Sep-18 06:30N 37°44' W 025°40'0 0.0
2017-Sep-18 06:00N 37°44' W 025°40'0 0.0
2017-Sep-18 05:27N 37°44' W 025°40'0 0.0
2017-Sep-18 05:00N 37°44' W 025°40'0 0.0
2017-Sep-18 04:30N 37°44' W 025°40'0 0.0
2017-Sep-18 03:57N 37°44' W 025°40'0 0.0
2017-Sep-18 03:30N 37°44' W 025°40'0 0.0
2017-Sep-18 02:57N 37°44' W 025°40'0 0.0
2017-Sep-18 02:30N 37°44' W 025°40'0 0.0
2017-Sep-18 02:00N 37°44' W 025°40'0 0.0
2017-Sep-18 01:30N 37°44' W 025°40'0 0.0
2017-Sep-18 01:00N 37°44' W 025°40'0 0.0
2017-Sep-18 00:30N 37°44' W 025°40'0 0.0
2017-Sep-18 00:00N 37°44' W 025°40'0 0.0
2017-Sep-17 23:30N 37°44' W 025°40'0 0.0
2017-Sep-17 22:57N 37°44' W 025°40'0 0.0
2017-Sep-17 22:30N 37°44' W 025°40'0 0.0
2017-Sep-17 22:00N 37°44' W 025°40'0 0.0
2017-Sep-17 21:30N 37°44' W 025°40'0 0.0
2017-Sep-17 21:00N 37°44' W 025°40'0 0.0
2017-Sep-17 20:30N 37°44' W 025°40'0 0.0
2017-Sep-17 20:00N 37°44' W 025°40'0 0.0
2017-Sep-17 19:30N 37°44' W 025°40'0 0.0
2017-Sep-17 18:57N 37°44' W 025°40'0 0.0
2017-Sep-17 18:30N 37°44' W 025°40'0 0.0
2017-Sep-17 18:00N 37°44' W 025°40'0 0.0
2017-Sep-17 17:30N 37°44' W 025°40'0 0.0
2017-Sep-17 17:00N 37°44' W 025°40'0 0.0
2017-Sep-17 16:30N 37°44' W 025°40'0 0.0
2017-Sep-17 16:00N 37°44' W 025°40'0 0.0
2017-Sep-17 15:30N 37°44' W 025°40'0 0.0
2017-Sep-17 15:00N 37°44' W 025°40'0 0.0
2017-Sep-17 14:30N 37°44' W 025°40'0 0.0
2017-Sep-17 14:00N 37°44' W 025°40'0 0.0
2017-Sep-17 13:30N 37°44' W 025°40'0 0.0
2017-Sep-17 13:00N 37°44' W 025°40'0 0.0
2017-Sep-17 12:27N 37°44' W 025°40'0 0.0
2017-Sep-17 11:57N 37°44' W 025°40'0 0.0
2017-Sep-17 11:30N 37°44' W 025°40'0 0.0
2017-Sep-17 10:57N 37°44' W 025°40'0 0.0
2017-Sep-17 10:30N 37°44' W 025°40'0 0.0
2017-Sep-17 10:00N 37°44' W 025°40'0 0.0
2017-Sep-17 09:30N 37°44' W 025°40'0 0.0
2017-Sep-17 08:57N 37°44' W 025°40'0 0.0
2017-Sep-17 08:30N 37°44' W 025°40'0 0.0
2017-Sep-17 08:00N 37°44' W 025°40'0 0.0
2017-Sep-17 07:30N 37°44' W 025°40'0 0.0
2017-Sep-17 07:00N 37°44' W 025°40'0 0.0
2017-Sep-17 06:27N 37°44' W 025°40'0 0.0
2017-Sep-17 06:00N 37°44' W 025°40'0 0.0
2017-Sep-17 05:30N 37°44' W 025°40'0 0.0
2017-Sep-17 04:57N 37°44' W 025°40'0 0.0
2017-Sep-17 04:30N 37°44' W 025°40'0 0.0
2017-Sep-17 04:00N 37°44' W 025°40'0 0.0
2017-Sep-17 03:30N 37°44' W 025°40'0 0.0
2017-Sep-17 03:00N 37°44' W 025°40'0 0.0
2017-Sep-17 02:30N 37°44' W 025°40'0 0.0
2017-Sep-17 02:00N 37°44' W 025°40'0 0.0
2017-Sep-17 01:30N 37°44' W 025°40'0 0.0
2017-Sep-17 01:00N 37°44' W 025°40'0 0.0
2017-Sep-17 00:31N 37°44' W 025°40'0 0.0
2017-Sep-17 00:00N 37°44' W 025°40'0 0.0
2017-Sep-16 23:30N 37°44' W 025°40'0 0.0
2017-Sep-16 23:01N 37°44' W 025°40'0 0.0
2017-Sep-16 22:30N 37°44' W 025°40'0 0.0
2017-Sep-16 22:00N 37°44' W 025°40'0 0.0
2017-Sep-16 21:30N 37°44' W 025°40'0 0.0
2017-Sep-16 21:00N 37°44' W 025°40'0 0.0
2017-Sep-16 20:30N 37°44' W 025°40'0 0.0
2017-Sep-16 19:58N 37°44' W 025°40'0 0.0
2017-Sep-16 19:30N 37°44' W 025°40'0 0.0
2017-Sep-16 19:00N 37°44' W 025°40'0 0.0
2017-Sep-16 18:30N 37°44' W 025°40'0 0.0
2017-Sep-16 18:00N 37°44' W 025°40'0 0.0
2017-Sep-16 17:30N 37°44' W 025°40'0 0.0
2017-Sep-16 17:00N 37°44' W 025°40'0 0.0
2017-Sep-16 16:28N 37°44' W 025°40'0 0.0
2017-Sep-16 16:00N 37°44' W 025°40'0 0.0
2017-Sep-16 15:30N 37°44' W 025°40'0 0.0
2017-Sep-16 15:00N 37°44' W 025°40'0 0.0
2017-Sep-16 14:30N 37°44' W 025°40'0 0.0
2017-Sep-16 13:58N 37°44' W 025°40'0 0.0
2017-Sep-16 13:30N 37°44' W 025°40'0 0.0
2017-Sep-16 13:00N 37°44' W 025°40'0 0.0
2017-Sep-16 12:30N 37°44' W 025°40'0 0.0
2017-Sep-16 12:00N 37°44' W 025°40'0 0.0
2017-Sep-16 11:31N 37°44' W 025°40'0 0.0
2017-Sep-16 10:58N 37°44' W 025°40'0 0.0
2017-Sep-16 10:30N 37°44' W 025°40'0 0.0
2017-Sep-16 10:00N 37°44' W 025°40'0 0.0
2017-Sep-16 09:30N 37°44' W 025°40'0 0.0
2017-Sep-16 08:58N 37°44' W 025°40'0 0.0
2017-Sep-16 08:30N 37°44' W 025°40'0 0.0
2017-Sep-16 08:00N 37°44' W 025°40'0 0.0
2017-Sep-16 07:30N 37°44' W 025°40'0 0.0
2017-Sep-16 06:58N 37°44' W 025°40'0 0.0
2017-Sep-16 06:30N 37°44' W 025°40'0 0.0
2017-Sep-16 05:57N 37°44' W 025°40'0 0.0
2017-Sep-16 05:28N 37°44' W 025°40'0 0.0
2017-Sep-16 05:00N 37°44' W 025°40'0 0.0
2017-Sep-16 04:31N 37°44' W 025°40'0 0.0
2017-Sep-16 04:00N 37°44' W 025°40'0 0.0
2017-Sep-16 03:28N 37°44' W 025°40'0 0.0
2017-Sep-16 02:58N 37°44' W 025°40'0 0.0
2017-Sep-16 02:30N 37°44' W 025°40'0 0.0
2017-Sep-16 02:00N 37°44' W 025°40'  
Track history (hours):
 
Tides and Currents Weather Stations Pressure Air Temp Water Temp Dewpoint Dewpoint Depression Visibility Wind Speed Wind Dir Waves Ship Positions

Dragocidental

Last reported at 2017-Sep-26 02:00 UTC. Time now 2017-Sep-26 02:23 UTC.
Position N 37°44' W 025°40'.

Length 30 m.

Type: Dredging. MMSI: 204671360.

Date/timePositionNaut miles runAvg speedWind from/ knotsBaromVisibWave heightAir tempDewpointWater temp
2017-Sep-26 02:00N 37°44' W 025°40'0 0.0
2017-Sep-26 01:27N 37°44' W 025°40'0 0.0
2017-Sep-26 00:57N 37°44' W 025°40'0 0.0
2017-Sep-26 00:30N 37°44' W 025°40'0 0.0
2017-Sep-26 00:00N 37°44' W 025°40'0 0.0
2017-Sep-25 23:30N 37°44' W 025°40'0 0.0
2017-Sep-25 23:00N 37°44' W 025°40'0 0.0
2017-Sep-25 22:30N 37°44' W 025°40'0 0.0
2017-Sep-25 22:00N 37°44' W 025°40'0 0.0
2017-Sep-25 21:30N 37°44' W 025°40'0 0.0
2017-Sep-25 21:00N 37°44' W 025°40'0 0.0
2017-Sep-25 20:30N 37°44' W 025°40'0 0.0
2017-Sep-25 19:57N 37°44' W 025°40'0 0.0
2017-Sep-25 19:30N 37°44' W 025°40'0 0.0
2017-Sep-25 19:00N 37°44' W 025°40'0 0.0
2017-Sep-25 18:27N 37°44' W 025°40'0 0.0
2017-Sep-25 18:00N 37°44' W 025°40'0 0.0
2017-Sep-25 17:27N 37°44' W 025°40'0 0.0
2017-Sep-25 17:00N 37°44' W 025°40'0 0.0
2017-Sep-25 16:30N 37°44' W 025°40'0 0.0
2017-Sep-25 16:00N 37°44' W 025°40'0 0.0
2017-Sep-25 15:27N 37°44' W 025°40'0 0.0
2017-Sep-25 15:00N 37°44' W 025°40'0 0.0
2017-Sep-25 14:30N 37°44' W 025°40'0 0.0
2017-Sep-25 14:00N 37°44' W 025°40'0 0.0
2017-Sep-25 13:30N 37°44' W 025°40'0 0.0
2017-Sep-25 13:00N 37°44' W 025°40'0 0.0
2017-Sep-25 12:30N 37°44' W 025°40'1 1.9
2017-Sep-25 12:00N 37°44' W 025°41'3 5.2
2017-Sep-25 11:30N 37°45' W 025°44'3 5.3
2017-Sep-25 11:00N 37°47' W 025°47'1 2.6
2017-Sep-25 10:29N 37°48' W 025°48'0 0.0
2017-Sep-25 09:58N 37°48' W 025°48'0 0.0
2017-Sep-25 09:30N 37°48' W 025°48'3 6.1
2017-Sep-25 09:00N 37°46' W 025°45'3 6.1
2017-Sep-25 08:30N 37°44' W 025°42'1 2.6
2017-Sep-25 07:59N 37°44' W 025°40'0 0.0
2017-Sep-25 07:29N 37°44' W 025°40'0 0.0
2017-Sep-25 06:58N 37°44' W 025°40'0 0.0
2017-Sep-25 06:28N 37°44' W 025°40'0 0.0
2017-Sep-25 05:59N 37°44' W 025°40'0 0.0
2017-Sep-25 05:29N 37°44' W 025°40'0 0.0
2017-Sep-25 04:59N 37°44' W 025°40'0 0.0
2017-Sep-25 04:29N 37°44' W 025°40'0 0.0
2017-Sep-25 03:59N 37°44' W 025°40'0 0.0
2017-Sep-25 03:29N 37°44' W 025°40'0 0.0
2017-Sep-25 02:59N 37°44' W 025°40'0 0.0
2017-Sep-25 02:20N 37°44' W 025°40'0 0.0
2017-Sep-25 01:59N 37°44' W 025°40'0 0.0
2017-Sep-25 01:29N 37°44' W 025°40'0 0.0
2017-Sep-25 00:59N 37°44' W 025°40'0 0.0
2017-Sep-25 00:29N 37°44' W 025°40'0 0.0
2017-Sep-24 23:59N 37°44' W 025°40'0 0.0
2017-Sep-24 23:29N 37°44' W 025°40'0 0.0
2017-Sep-24 22:59N 37°44' W 025°40'0 0.0
2017-Sep-24 22:29N 37°44' W 025°40'0 0.0
2017-Sep-24 21:59N 37°44' W 025°40'0 0.0
2017-Sep-24 21:29N 37°44' W 025°40'0 0.0
2017-Sep-24 20:59N 37°44' W 025°40'0 0.0
2017-Sep-24 20:29N 37°44' W 025°40'0 0.0
2017-Sep-24 19:56N 37°44' W 025°40'0 0.0
2017-Sep-24 19:29N 37°44' W 025°40'0 0.0
2017-Sep-24 18:59N 37°44' W 025°40'0 0.0
2017-Sep-24 18:29N 37°44' W 025°40'0 0.0
2017-Sep-24 17:59N 37°44' W 025°40'0 0.0
2017-Sep-24 17:29N 37°44' W 025°40'0 0.0
2017-Sep-24 16:59N 37°44' W 025°40'0 0.0
2017-Sep-24 16:29N 37°44' W 025°40'0 0.0
2017-Sep-24 15:59N 37°44' W 025°40'0 0.0
2017-Sep-24 15:29N 37°44' W 025°40'0 0.0
2017-Sep-24 14:59N 37°44' W 025°40'0 0.0
2017-Sep-24 14:29N 37°44' W 025°40'0 0.0
2017-Sep-24 13:59N 37°44' W 025°40'0 0.0
2017-Sep-24 13:29N 37°44' W 025°40'0 0.0
2017-Sep-24 12:59N 37°44' W 025°40'0 0.0
2017-Sep-24 12:29N 37°44' W 025°40'0 0.0
2017-Sep-24 11:59N 37°44' W 025°40'0 0.0
2017-Sep-24 11:29N 37°44' W 025°40'0 0.0
2017-Sep-24 10:59N 37°44' W 025°40'0 0.0
2017-Sep-24 10:29N 37°44' W 025°40'0 0.0
2017-Sep-24 09:59N 37°44' W 025°40'0 0.0
2017-Sep-24 09:26N 37°44' W 025°40'0 0.0
2017-Sep-24 08:59N 37°44' W 025°40'0 0.0
2017-Sep-24 08:26N 37°44' W 025°40'0 0.0
2017-Sep-24 07:59N 37°44' W 025°40'0 0.0
2017-Sep-24 07:29N 37°44' W 025°40'0 0.0
2017-Sep-24 06:59N 37°44' W 025°40'0 0.0
2017-Sep-24 06:29N 37°44' W 025°40'0 0.0
2017-Sep-24 05:59N 37°44' W 025°40'0 0.0
2017-Sep-24 05:29N 37°44' W 025°40'0 0.0
2017-Sep-24 04:59N 37°44' W 025°40'0 0.0
2017-Sep-24 04:29N 37°44' W 025°40'0 0.0
2017-Sep-24 03:59N 37°44' W 025°40'0 0.0
2017-Sep-24 03:29N 37°44' W 025°40'0 0.0
2017-Sep-24 02:59N 37°44' W 025°40'0 0.0
2017-Sep-24 02:26N 37°44' W 025°40'0 0.0
2017-Sep-24 01:59N 37°44' W 025°40'0 0.0
2017-Sep-24 01:29N 37°44' W 025°40'0 0.0
2017-Sep-24 00:59N 37°44' W 025°40'0 0.0
2017-Sep-24 00:29N 37°44' W 025°40'0 0.0
2017-Sep-23 23:56N 37°44' W 025°40'0 0.0
2017-Sep-23 23:29N 37°44' W 025°40'0 0.0
2017-Sep-23 22:59N 37°44' W 025°40'0 0.0
2017-Sep-23 22:29N 37°44' W 025°40'0 0.0
2017-Sep-23 21:56N 37°44' W 025°40'0 0.0
2017-Sep-23 21:29N 37°44' W 025°40'0 0.0
2017-Sep-23 20:59N 37°44' W 025°40'0 0.0
2017-Sep-23 20:29N 37°44' W 025°40'0 0.0
2017-Sep-23 19:59N 37°44' W 025°40'0 0.0
2017-Sep-22 01:58N 37°44' W 025°40'0 0.0
2017-Sep-22 01:28N 37°44' W 025°40'0 0.0
2017-Sep-22 00:58N 37°44' W 025°40'0 0.0
2017-Sep-22 00:28N 37°44' W 025°40'0 0.0
2017-Sep-21 23:55N 37°44' W 025°40'0 0.0
2017-Sep-21 23:28N 37°44' W 025°40'0 0.0
2017-Sep-21 22:58N 37°44' W 025°40'0 0.0
2017-Sep-21 22:28N 37°44' W 025°40'0 0.0
2017-Sep-21 21:58N 37°44' W 025°40'0 0.0
2017-Sep-21 21:28N 37°44' W 025°40'0 0.0
2017-Sep-21 20:58N 37°44' W 025°40'0 0.0
2017-Sep-21 20:28N 37°44' W 025°40'0 0.0
2017-Sep-21 19:52N 37°44' W 025°40'0 0.0
2017-Sep-21 19:28N 37°44' W 025°40'0 0.0
2017-Sep-21 18:58N 37°44' W 025°40'0 0.0
2017-Sep-21 18:28N 37°44' W 025°40'0 0.0
2017-Sep-21 17:58N 37°44' W 025°40'0 0.0
2017-Sep-21 17:28N 37°44' W 025°40'0 0.0
2017-Sep-21 16:58N 37°44' W 025°40'0 0.0
2017-Sep-21 16:28N 37°44' W 025°40'0 0.0
2017-Sep-21 15:58N 37°44' W 025°40'0 0.0
2017-Sep-21 15:28N 37°44' W 025°40'0 0.0
2017-Sep-21 14:58N 37°44' W 025°40'0 0.0
2017-Sep-21 14:28N 37°44' W 025°40'0 0.0
2017-Sep-21 13:58N 37°44' W 025°40'0 0.0
2017-Sep-21 13:28N 37°44' W 025°40'0 0.0
2017-Sep-21 12:58N 37°44' W 025°40'0 0.2
2017-Sep-21 12:30N 37°44' W 025°40'2 3.1
2017-Sep-21 12:00N 37°44' W 025°42'3 5.8
2017-Sep-21 11:30N 37°45' W 025°45'3 5.5
2017-Sep-21 11:00N 37°47' W 025°47'1 1.1
2017-Sep-21 10:29N 37°48' W 025°48'0 0.0
2017-Sep-21 09:59N 37°48' W 025°48'0 0.0
2017-Sep-21 09:29N 37°48' W 025°48'2 3.9
2017-Sep-21 09:00N 37°46' W 025°46'3 6.9
2017-Sep-21 08:30N 37°44' W 025°43'2 4.3
2017-Sep-21 08:00N 37°44' W 025°40'0 0.1
2017-Sep-21 07:29N 37°44' W 025°40'0 0.0
2017-Sep-21 06:59N 37°44' W 025°40'0 0.0
2017-Sep-21 06:26N 37°44' W 025°40'0 0.0
2017-Sep-21 05:59N 37°44' W 025°40'0 0.0
2017-Sep-21 05:29N 37°44' W 025°40'0 0.0
2017-Sep-21 04:59N 37°44' W 025°40'0 0.0
2017-Sep-21 04:29N 37°44' W 025°40'0 0.0
2017-Sep-21 03:56N 37°44' W 025°40'0 0.0
2017-Sep-21 03:29N 37°44' W 025°40'0 0.0
2017-Sep-21 02:59N 37°44' W 025°40'0 0.0
2017-Sep-21 02:29N 37°44' W 025°40'0 0.0
2017-Sep-21 01:59N 37°44' W 025°40'0 0.0
2017-Sep-21 01:29N 37°44' W 025°40'0 0.0
2017-Sep-21 00:59N 37°44' W 025°40'0 0.0
2017-Sep-21 00:29N 37°44' W 025°40'0 0.0
2017-Sep-20 23:59N 37°44' W 025°40'0 0.0
2017-Sep-20 23:29N 37°44' W 025°40'0 0.0
2017-Sep-20 22:59N 37°44' W 025°40'0 0.0
2017-Sep-20 22:26N 37°44' W 025°40'0 0.0
2017-Sep-20 21:59N 37°44' W 025°40'0 0.0
2017-Sep-20 21:29N 37°44' W 025°40'0 0.0
2017-Sep-20 20:59N 37°44' W 025°40'0 0.0
2017-Sep-20 20:29N 37°44' W 025°40'0 0.0
2017-Sep-20 19:59N 37°44' W 025°40'0 0.0
2017-Sep-20 19:29N 37°44' W 025°40'0 0.0
2017-Sep-20 18:59N 37°44' W 025°40'0 0.0
2017-Sep-20 18:29N 37°44' W 025°40'0 0.0
2017-Sep-20 17:56N 37°44' W 025°40'0 0.0
2017-Sep-20 17:29N 37°44' W 025°40'0 0.0
2017-Sep-20 16:59N 37°44' W 025°40'0 0.0
2017-Sep-20 16:29N 37°44' W 025°40'0 0.0
2017-Sep-20 15:59N 37°44' W 025°40'0 0.0
2017-Sep-20 15:29N 37°44' W 025°40'0 0.0
2017-Sep-20 14:59N 37°44' W 025°40'0 0.0
2017-Sep-20 13:59N 37°44' W 025°40'0 0.0
2017-Sep-20 13:29N 37°44' W 025°40'0 0.0
2017-Sep-20 12:59N 37°44' W 025°40'1 1.2
2017-Sep-20 12:30N 37°44' W 025°39'3 5.7
2017-Sep-20 12:00N 37°44' W 025°43'3 5.7
2017-Sep-20 11:30N 37°46' W 025°46'2 4.4
2017-Sep-20 10:58N 37°48' W 025°48'0 0.0
2017-Sep-20 10:30N 37°48' W 025°48'0 0.0
2017-Sep-20 10:00N 37°48' W 025°48'0 0.5
2017-Sep-20 09:30N 37°48' W 025°47'3 5.7
2017-Sep-20 09:00N 37°45' W 025°45'3 6.0
2017-Sep-20 08:30N 37°44' W 025°42'1 2.5
2017-Sep-20 07:58N 37°44' W 025°40'0 0.0
2017-Sep-20 07:28N 37°44' W 025°40'0 0.0
2017-Sep-20 06:58N 37°44' W 025°40'0 0.0
2017-Sep-20 06:28N 37°44' W 025°40'0 0.0
2017-Sep-20 05:55N 37°44' W 025°40'0 0.0
2017-Sep-20 05:28N 37°44' W 025°40'0 0.0
2017-Sep-20 04:58N 37°44' W 025°40'0 0.0
2017-Sep-20 04:28N 37°44' W 025°40'0 0.0
2017-Sep-20 03:58N 37°44' W 025°40'0 0.0
2017-Sep-20 03:28N 37°44' W 025°40'0 0.0
2017-Sep-20 02:58N 37°44' W 025°40'0 0.0
2017-Sep-20 02:28N 37°44' W 025°40'0 0.0
2017-Sep-20 01:58N 37°44' W 025°40'0 0.0
2017-Sep-20 01:28N 37°44' W 025°40'0 0.0
2017-Sep-20 00:58N 37°44' W 025°40'0 0.0
2017-Sep-20 00:25N 37°44' W 025°40'0 0.0
2017-Sep-19 23:58N 37°44' W 025°40'0 0.0
2017-Sep-19 23:28N 37°44' W 025°40'0 0.0
2017-Sep-19 22:58N 37°44' W 025°40'0 0.0
2017-Sep-19 22:28N 37°44' W 025°40'0 0.0
2017-Sep-19 21:58N 37°44' W 025°40'0 0.0
2017-Sep-19 21:28N 37°44' W 025°40'0 0.0
2017-Sep-19 20:58N 37°44' W 025°40'0 0.0
2017-Sep-19 20:28N 37°44' W 025°40'0 0.0
2017-Sep-19 19:58N 37°44' W 025°40'0 0.0
2017-Sep-19 19:25N 37°44' W 025°40'0 0.0
2017-Sep-19 18:58N 37°44' W 025°40'0 0.0
2017-Sep-19 18:28N 37°44' W 025°40'0 0.0
2017-Sep-19 17:58N 37°44' W 025°40'0 0.0
2017-Sep-19 17:28N 37°44' W 025°40'0 0.0
2017-Sep-19 16:58N 37°44' W 025°40'0 0.0
2017-Sep-19 16:28N 37°44' W 025°40'0 0.0
2017-Sep-19 15:55N 37°44' W 025°40'0 0.0
2017-Sep-19 15:28N 37°44' W 025°40'0 0.0
2017-Sep-19 14:58N 37°44' W 025°40'0 0.0
2017-Sep-19 14:28N 37°44' W 025°40'0 0.0
2017-Sep-19 13:55N 37°44' W 025°40'0 0.0
2017-Sep-19 13:28N 37°44' W 025°40'0 0.0
2017-Sep-19 12:58N 37°44' W 025°40'0 0.0
2017-Sep-19 12:25N 37°44' W 025°40'0 0.7
2017-Sep-19 12:00N 37°44' W 025°40'3 5.5
2017-Sep-19 11:30N 37°44' W 025°43'3 5.4
2017-Sep-19 11:00N 37°46' W 025°46'2 3.9
2017-Sep-19 10:30N 37°48' W 025°48'0 0.0
2017-Sep-19 10:00N 37°48' W 025°48'0 0.0
2017-Sep-19 09:30N 37°48' W 025°48'3 6.1
2017-Sep-19 09:00N 37°46' W 025°45'3 6.2
2017-Sep-19 08:30N 37°44' W 025°42'1 2.6
2017-Sep-19 08:00N 37°44' W 025°40'0 0.0
2017-Sep-19 07:30N 37°44' W 025°40'0 0.0
2017-Sep-19 07:00N 37°44' W 025°40'0 0.0
2017-Sep-19 06:30N 37°44' W 025°40'0 0.0
2017-Sep-19 06:00N 37°44' W 025°40'0 0.0
2017-Sep-19 05:30N 37°44' W 025°40'0 0.0
2017-Sep-19 05:00N 37°44' W 025°40'0 0.0
2017-Sep-19 04:30N 37°44' W 025°40'0 0.0
2017-Sep-19 04:00N 37°44' W 025°40'0 0.0
2017-Sep-19 03:30N 37°44' W 025°40'0 0.0
2017-Sep-19 03:00N 37°44' W 025°40'0 0.0
2017-Sep-19 02:30N 37°44' W 025°40'0 0.0
2017-Sep-19 02:00N 37°44' W 025°40'0 0.0
2017-Sep-19 01:30N 37°44' W 025°40'0 0.0
2017-Sep-19 01:00N 37°44' W 025°40'0 0.0
2017-Sep-19 00:30N 37°44' W 025°40'0 0.0
2017-Sep-19 00:00N 37°44' W 025°40'0 0.0
2017-Sep-18 23:30N 37°44' W 025°40'0 0.0
2017-Sep-18 23:00N 37°44' W 025°40'0 0.0
2017-Sep-18 22:30N 37°44' W 025°40'0 0.0
2017-Sep-18 22:00N 37°44' W 025°40'0 0.0
2017-Sep-18 21:30N 37°44' W 025°40'0 0.0
2017-Sep-18 21:00N 37°44' W 025°40'0 0.0
2017-Sep-18 20:27N 37°44' W 025°40'0 0.0
2017-Sep-18 20:00N 37°44' W 025°40'0 0.0
2017-Sep-18 19:30N 37°44' W 025°40'0 0.0
2017-Sep-18 19:00N 37°44' W 025°40'0 0.0
2017-Sep-18 18:30N 37°44' W 025°40'0 0.0
2017-Sep-18 18:00N 37°44' W 025°40'0 0.0
2017-Sep-18 17:30N 37°44' W 025°40'0 0.0
2017-Sep-18 17:00N 37°44' W 025°40'0 0.0
2017-Sep-18 16:30N 37°44' W 025°40'0 0.0
2017-Sep-18 16:00N 37°44' W 025°40'0 0.0
2017-Sep-18 15:30N 37°44' W 025°40'0 0.0
2017-Sep-18 15:00N 37°44' W 025°40'0 0.0
2017-Sep-18 14:30N 37°44' W 025°40'0 0.0
2017-Sep-18 14:00N 37°44' W 025°40'0 0.0
2017-Sep-18 13:30N 37°44' W 025°40'0 0.0
2017-Sep-18 13:00N 37°44' W 025°40'0 0.0
2017-Sep-18 12:30N 37°44' W 025°40'0 0.0
2017-Sep-18 12:00N 37°44' W 025°40'0 0.0
2017-Sep-18 11:27N 37°44' W 025°40'0 0.0
2017-Sep-18 11:00N 37°44' W 025°40'0 0.0
2017-Sep-18 10:30N 37°44' W 025°40'0 0.0
2017-Sep-18 10:00N 37°44' W 025°40'0 0.0
2017-Sep-18 09:30N 37°44' W 025°40'0 0.0
2017-Sep-18 09:00N 37°44' W 025°40'0 0.0
2017-Sep-18 08:30N 37°44' W 025°40'0 0.0
2017-Sep-18 08:00N 37°44' W 025°40'0 0.0
2017-Sep-18 07:30N 37°44' W 025°40'0 0.0
2017-Sep-18 07:00N 37°44' W 025°40'0 0.0
2017-Sep-18 06:30N 37°44' W 025°40'0 0.0
2017-Sep-18 06:00N 37°44' W 025°40'0 0.0
2017-Sep-18 05:27N 37°44' W 025°40'0 0.0
2017-Sep-18 05:00N 37°44' W 025°40'0 0.0
2017-Sep-18 04:30N 37°44' W 025°40'0 0.0
2017-Sep-18 03:57N 37°44' W 025°40'0 0.0
2017-Sep-18 03:30N 37°44' W 025°40'0 0.0
2017-Sep-18 02:57N 37°44' W 025°40'0 0.0
2017-Sep-18 02:30N 37°44' W 025°40'0 0.0
2017-Sep-18 02:00N 37°44' W 025°40'0 0.0
2017-Sep-18 01:30N 37°44' W 025°40'0 0.0
2017-Sep-18 01:00N 37°44' W 025°40'0 0.0
2017-Sep-18 00:30N 37°44' W 025°40'0 0.0
2017-Sep-18 00:00N 37°44' W 025°40'0 0.0
2017-Sep-17 23:30N 37°44' W 025°40'0 0.0
2017-Sep-17 22:57N 37°44' W 025°40'0 0.0
2017-Sep-17 22:30N 37°44' W 025°40'0 0.0
2017-Sep-17 22:00N 37°44' W 025°40'0 0.0
2017-Sep-17 21:30N 37°44' W 025°40'0 0.0
2017-Sep-17 21:00N 37°44' W 025°40'0 0.0
2017-Sep-17 20:30N 37°44' W 025°40'0 0.0
2017-Sep-17 20:00N 37°44' W 025°40'0 0.0
2017-Sep-17 19:30N 37°44' W 025°40'0 0.0
2017-Sep-17 18:57N 37°44' W 025°40'0 0.0
2017-Sep-17 18:30N 37°44' W 025°40'0 0.0
2017-Sep-17 18:00N 37°44' W 025°40'0 0.0
2017-Sep-17 17:30N 37°44' W 025°40'0 0.0
2017-Sep-17 17:00N 37°44' W 025°40'0 0.0
2017-Sep-17 16:30N 37°44' W 025°40'0 0.0
2017-Sep-17 16:00N 37°44' W 025°40'0 0.0
2017-Sep-17 15:30N 37°44' W 025°40'0 0.0
2017-Sep-17 15:00N 37°44' W 025°40'0 0.0
2017-Sep-17 14:30N 37°44' W 025°40'0 0.0
2017-Sep-17 14:00N 37°44' W 025°40'0 0.0
2017-Sep-17 13:30N 37°44' W 025°40'0 0.0
2017-Sep-17 13:00N 37°44' W 025°40'0 0.0
2017-Sep-17 12:27N 37°44' W 025°40'0 0.0
2017-Sep-17 11:57N 37°44' W 025°40'0 0.0
2017-Sep-17 11:30N 37°44' W 025°40'0 0.0
2017-Sep-17 10:57N 37°44' W 025°40'0 0.0
2017-Sep-17 10:30N 37°44' W 025°40'0 0.0
2017-Sep-17 10:00N 37°44' W 025°40'0 0.0
2017-Sep-17 09:30N 37°44' W 025°40'0 0.0
2017-Sep-17 08:57N 37°44' W 025°40'0 0.0
2017-Sep-17 08:30N 37°44' W 025°40'0 0.0
2017-Sep-17 08:00N 37°44' W 025°40'0 0.0
2017-Sep-17 07:30N 37°44' W 025°40'0 0.0
2017-Sep-17 07:00N 37°44' W 025°40'0 0.0
2017-Sep-17 06:27N 37°44' W 025°40'0 0.0
2017-Sep-17 06:00N 37°44' W 025°40'0 0.0
2017-Sep-17 05:30N 37°44' W 025°40'0 0.0
2017-Sep-17 04:57N 37°44' W 025°40'0 0.0
2017-Sep-17 04:30N 37°44' W 025°40'0 0.0
2017-Sep-17 04:00N 37°44' W 025°40'0 0.0
2017-Sep-17 03:30N 37°44' W 025°40'0 0.0
2017-Sep-17 03:00N 37°44' W 025°40'0 0.0
2017-Sep-17 02:30N 37°44' W 025°40'0 0.0
2017-Sep-17 02:00N 37°44' W 025°40'0 0.0
2017-Sep-17 01:30N 37°44' W 025°40'0 0.0
2017-Sep-17 01:00N 37°44' W 025°40'0 0.0
2017-Sep-17 00:31N 37°44' W 025°40'0 0.0
2017-Sep-17 00:00N 37°44' W 025°40'0 0.0
2017-Sep-16 23:30N 37°44' W 025°40'0 0.0
2017-Sep-16 23:01N 37°44' W 025°40'0 0.0
2017-Sep-16 22:30N 37°44' W 025°40'0 0.0
2017-Sep-16 22:00N 37°44' W 025°40'0 0.0
2017-Sep-16 21:30N 37°44' W 025°40'0 0.0
2017-Sep-16 21:00N 37°44' W 025°40'0 0.0
2017-Sep-16 20:30N 37°44' W 025°40'0 0.0
2017-Sep-16 19:58N 37°44' W 025°40'0 0.0
2017-Sep-16 19:30N 37°44' W 025°40'0 0.0
2017-Sep-16 19:00N 37°44' W 025°40'0 0.0
2017-Sep-16 18:30N 37°44' W 025°40'0 0.0
2017-Sep-16 18:00N 37°44' W 025°40'0 0.0
2017-Sep-16 17:30N 37°44' W 025°40'0 0.0
2017-Sep-16 17:00N 37°44' W 025°40'0 0.0
2017-Sep-16 16:28N 37°44' W 025°40'0 0.0
2017-Sep-16 16:00N 37°44' W 025°40'0 0.0
2017-Sep-16 15:30N 37°44' W 025°40'0 0.0
2017-Sep-16 15:00N 37°44' W 025°40'0 0.0
2017-Sep-16 14:30N 37°44' W 025°40'0 0.0
2017-Sep-16 13:58N 37°44' W 025°40'0 0.0
2017-Sep-16 13:30N 37°44' W 025°40'0 0.0
2017-Sep-16 13:00N 37°44' W 025°40'0 0.0
2017-Sep-16 12:30N 37°44' W 025°40'0 0.0
2017-Sep-16 12:00N 37°44' W 025°40'0 0.0
2017-Sep-16 11:31N 37°44' W 025°40'0 0.0
2017-Sep-16 10:58N 37°44' W 025°40'0 0.0
2017-Sep-16 10:30N 37°44' W 025°40'0 0.0
2017-Sep-16 10:00N 37°44' W 025°40'0 0.0
2017-Sep-16 09:30N 37°44' W 025°40'0 0.0
2017-Sep-16 08:58N 37°44' W 025°40'0 0.0
2017-Sep-16 08:30N 37°44' W 025°40'0 0.0
2017-Sep-16 08:00N 37°44' W 025°40'0 0.0
2017-Sep-16 07:30N 37°44' W 025°40'0 0.0
2017-Sep-16 06:58N 37°44' W 025°40'0 0.0
2017-Sep-16 06:30N 37°44' W 025°40'0 0.0
2017-Sep-16 05:57N 37°44' W 025°40'0 0.0
2017-Sep-16 05:28N 37°44' W 025°40'0 0.0
2017-Sep-16 05:00N 37°44' W 025°40'0 0.0
2017-Sep-16 04:31N 37°44' W 025°40'0 0.0
2017-Sep-16 04:00N 37°44' W 025°40'0 0.0
2017-Sep-16 03:28N 37°44' W 025°40'0 0.0
2017-Sep-16 02:58N 37°44' W 025°40'0 0.0
2017-Sep-16 02:30N 37°44' W 025°40'0 0.0
2017-Sep-16 02:00N 37°44' W 025°40'  

Dump ship's entire track history